createdAt,value
2017-08-20T00:01:22.535Z,14.70
2017-08-20T00:03:48.964Z,14.70
2017-08-20T00:06:15.392Z,14.70
2017-08-20T00:08:41.748Z,14.70
2017-08-20T00:11:08.905Z,14.60
2017-08-20T00:13:35.311Z,14.60
2017-08-20T00:16:01.743Z,14.60
2017-08-20T00:18:28.136Z,14.60
2017-08-20T00:20:54.535Z,14.50
2017-08-20T00:23:20.910Z,14.50
2017-08-20T00:25:47.363Z,14.50
2017-08-20T00:28:13.724Z,14.50
2017-08-20T00:30:40.855Z,14.50
2017-08-20T00:33:07.263Z,14.50
2017-08-20T00:35:33.659Z,14.50
2017-08-20T00:38:00.060Z,14.50
2017-08-20T00:40:26.483Z,14.50
2017-08-20T00:42:52.883Z,14.60
2017-08-20T00:45:19.307Z,14.60
2017-08-20T00:47:45.808Z,14.60
2017-08-20T00:50:12.255Z,14.60
2017-08-20T00:52:38.705Z,14.60
2017-08-20T00:55:05.191Z,14.60
2017-08-20T00:57:31.581Z,14.50
2017-08-20T00:59:58.031Z,14.60
2017-08-20T01:02:24.431Z,14.60
2017-08-20T01:04:50.836Z,14.60
2017-08-20T01:07:17.215Z,14.60
2017-08-20T01:09:43.645Z,14.60
2017-08-20T01:12:10.054Z,14.60
2017-08-20T01:14:36.387Z,14.70
2017-08-20T01:17:02.936Z,14.70
2017-08-20T01:19:30.372Z,14.70
2017-08-20T01:21:56.801Z,14.60
2017-08-20T01:24:23.303Z,14.60
2017-08-20T01:26:49.647Z,14.60
2017-08-20T01:29:16.024Z,14.50
2017-08-20T01:31:42.427Z,14.40
2017-08-20T01:34:08.815Z,14.40
2017-08-20T01:36:35.288Z,14.30
2017-08-20T01:39:01.676Z,14.40
2017-08-20T01:41:28.139Z,14.30
2017-08-20T01:43:54.518Z,14.30
2017-08-20T01:46:20.944Z,14.30
2017-08-20T01:48:47.315Z,14.20
2017-08-20T01:51:13.707Z,14.20
2017-08-20T01:53:40.840Z,14.20
2017-08-20T01:56:07.239Z,14.10
2017-08-20T01:58:33.662Z,14.20
2017-08-20T02:01:00.055Z,14.20
2017-08-20T02:03:26.420Z,14.20
2017-08-20T02:05:53.079Z,14.20
2017-08-20T02:08:19.523Z,14.20
2017-08-20T02:10:45.900Z,14.10
2017-08-20T02:13:12.292Z,14.00
2017-08-20T02:15:39.683Z,14.00
2017-08-20T02:18:06.065Z,14.00
2017-08-20T02:20:33.205Z,13.90
2017-08-20T02:22:59.648Z,13.90
2017-08-20T02:25:26.080Z,13.90
2017-08-20T02:27:52.468Z,13.90
2017-08-20T02:30:18.903Z,13.80
2017-08-20T02:32:45.270Z,13.80
2017-08-20T02:35:11.655Z,13.80
2017-08-20T02:37:38.084Z,13.80
2017-08-20T02:40:04.528Z,13.80
2017-08-20T02:42:30.899Z,13.70
2017-08-20T02:44:57.312Z,13.70
2017-08-20T02:47:23.740Z,13.70
2017-08-20T02:49:50.115Z,13.60
2017-08-20T02:52:16.519Z,13.60
2017-08-20T02:54:42.943Z,13.60
2017-08-20T02:57:09.333Z,13.60
2017-08-20T02:59:35.772Z,13.60
2017-08-20T03:02:02.959Z,13.60
2017-08-20T03:04:29.352Z,13.60
2017-08-20T03:06:55.801Z,13.60
2017-08-20T03:09:22.195Z,13.50
2017-08-20T03:11:48.640Z,13.50
2017-08-20T03:14:16.908Z,13.40
2017-08-20T03:16:43.333Z,13.40
2017-08-20T03:19:09.760Z,13.40
2017-08-20T03:21:36.179Z,13.40
2017-08-20T03:24:02.604Z,13.40
2017-08-20T03:26:28.987Z,13.40
2017-08-20T03:28:56.153Z,13.40
2017-08-20T03:31:22.584Z,13.40
2017-08-20T03:33:48.950Z,13.40
2017-08-20T03:36:17.215Z,13.30
2017-08-20T03:38:43.629Z,13.30
2017-08-20T03:41:10.019Z,13.30
2017-08-20T03:43:36.509Z,13.20
2017-08-20T03:46:02.942Z,13.20
2017-08-20T03:48:29.307Z,13.20
2017-08-20T03:50:56.477Z,13.20
2017-08-20T03:53:22.881Z,13.20
2017-08-20T03:55:49.271Z,13.20
2017-08-20T03:58:16.431Z,13.20
2017-08-20T04:00:42.823Z,13.20
2017-08-20T04:03:09.202Z,13.20
2017-08-20T04:05:35.631Z,13.20
2017-08-20T04:08:02.057Z,13.20
2017-08-20T04:10:28.435Z,13.20
2017-08-20T04:12:54.891Z,13.20
2017-08-20T04:15:22.325Z,13.20
2017-08-20T04:17:48.703Z,13.20
2017-08-20T04:20:16.239Z,13.20
2017-08-20T04:22:42.723Z,13.20
2017-08-20T04:25:09.115Z,13.20
2017-08-20T04:27:35.512Z,13.20
2017-08-20T04:30:01.941Z,13.20
2017-08-20T04:32:28.459Z,13.20
2017-08-20T04:34:54.860Z,13.20
2017-08-20T04:37:21.247Z,13.10
2017-08-20T04:39:47.644Z,13.10
2017-08-20T04:42:14.769Z,13.20
2017-08-20T04:44:41.195Z,13.20
2017-08-20T04:47:07.580Z,13.20
2017-08-20T04:49:34.003Z,13.20
2017-08-20T04:52:00.395Z,13.30
2017-08-20T04:54:26.786Z,13.30
2017-08-20T04:56:53.230Z,13.30
2017-08-20T04:59:19.619Z,13.30
2017-08-20T05:01:46.010Z,13.20
2017-08-20T05:04:12.455Z,13.20
2017-08-20T05:06:38.836Z,13.20
2017-08-20T05:09:05.236Z,13.20
2017-08-20T05:11:31.649Z,13.30
2017-08-20T05:13:58.007Z,13.30
2017-08-20T05:16:24.431Z,13.30
2017-08-20T05:18:50.831Z,13.40
2017-08-20T05:21:17.215Z,13.40
2017-08-20T05:23:43.643Z,13.40
2017-08-20T05:26:10.056Z,13.50
2017-08-20T05:28:36.471Z,13.50
2017-08-20T05:31:02.860Z,13.50
2017-08-20T05:33:29.276Z,13.50
2017-08-20T05:35:55.664Z,13.50
2017-08-20T05:38:22.027Z,13.40
2017-08-20T05:40:48.433Z,13.50
2017-08-20T05:43:14.851Z,13.50
2017-08-20T05:45:41.274Z,13.50
2017-08-20T05:48:07.705Z,13.50
2017-08-20T05:50:34.094Z,13.60
2017-08-20T05:53:00.543Z,13.70
2017-08-20T05:55:27.001Z,13.70
2017-08-20T05:57:53.411Z,13.80
2017-08-20T06:00:19.803Z,13.90
2017-08-20T06:02:46.191Z,13.80
2017-08-20T06:05:12.622Z,14.00
2017-08-20T06:07:39.032Z,14.10
2017-08-20T06:10:05.447Z,14.10
2017-08-20T06:12:31.811Z,14.10
2017-08-20T06:14:58.208Z,14.20
2017-08-20T06:17:24.595Z,14.20
2017-08-20T06:19:50.967Z,14.30
2017-08-20T06:22:17.347Z,14.30
2017-08-20T06:24:43.743Z,14.40
2017-08-20T06:27:10.150Z,14.40
2017-08-20T06:29:36.532Z,14.40
2017-08-20T06:32:02.960Z,14.40
2017-08-20T06:34:29.361Z,14.40
2017-08-20T06:36:56.503Z,14.50
2017-08-20T06:39:22.988Z,14.50
2017-08-20T06:41:49.367Z,14.60
2017-08-20T06:44:15.731Z,14.70
2017-08-20T06:46:42.175Z,14.70
2017-08-20T06:49:08.560Z,14.80
2017-08-20T06:51:34.946Z,14.90
2017-08-20T06:54:01.349Z,15.00
2017-08-20T06:56:27.786Z,15.00
2017-08-20T06:58:54.219Z,15.10
2017-08-20T07:01:20.635Z,15.00
2017-08-20T07:03:47.051Z,15.00
2017-08-20T07:06:13.452Z,15.00
2017-08-20T07:08:39.863Z,15.20
2017-08-20T07:11:06.268Z,15.40
2017-08-20T07:13:33.752Z,15.40
2017-08-20T07:16:00.206Z,15.50
2017-08-20T07:18:26.605Z,15.60
2017-08-20T07:20:52.995Z,15.60
2017-08-20T07:23:20.167Z,15.80
2017-08-20T07:25:46.549Z,15.80
2017-08-20T07:28:13.011Z,16.00
2017-08-20T07:30:39.402Z,16.10
2017-08-20T07:33:05.799Z,16.10
2017-08-20T07:35:32.180Z,16.10
2017-08-20T07:37:58.638Z,16.10
2017-08-20T07:40:25.035Z,16.10
2017-08-20T07:42:51.423Z,16.30
2017-08-20T07:45:17.823Z,16.60
2017-08-20T07:47:44.262Z,16.50
2017-08-20T07:50:10.695Z,16.30
2017-08-20T07:52:37.111Z,16.40
2017-08-20T07:55:03.503Z,16.40
2017-08-20T07:57:29.919Z,16.50
2017-08-20T07:59:56.283Z,16.50
2017-08-20T08:02:22.639Z,16.60
2017-08-20T08:04:49.015Z,16.70
2017-08-20T08:07:16.396Z,17.30
2017-08-20T08:09:43.903Z,17.30
2017-08-20T08:12:10.279Z,17.60
2017-08-20T08:14:36.637Z,17.90
2017-08-20T08:17:03.767Z,18.20
2017-08-20T08:19:30.129Z,18.20
2017-08-20T08:21:56.551Z,18.40
2017-08-20T08:24:22.975Z,18.60
2017-08-20T08:26:49.380Z,18.80
2017-08-20T08:29:15.793Z,18.90
2017-08-20T08:31:42.132Z,19.00
2017-08-20T08:34:08.551Z,18.80
2017-08-20T08:36:34.979Z,18.50
2017-08-20T08:39:01.379Z,18.20
2017-08-20T08:41:27.803Z,18.30
2017-08-20T08:43:54.223Z,18.50
2017-08-20T08:46:20.643Z,18.70
2017-08-20T08:48:47.007Z,18.60
2017-08-20T08:51:13.412Z,19.20
2017-08-20T08:53:39.816Z,20.30
2017-08-20T08:56:06.176Z,21.00
2017-08-20T08:58:32.523Z,21.90
2017-08-20T09:00:58.932Z,22.80
2017-08-20T09:03:25.335Z,24.00
2017-08-20T09:05:51.722Z,24.90
2017-08-20T09:08:18.115Z,25.20
2017-08-20T09:10:45.239Z,25.30
2017-08-20T09:13:12.353Z,26.20
2017-08-20T09:15:38.775Z,26.10
2017-08-20T09:18:05.234Z,27.70
2017-08-20T09:20:31.688Z,28.90
2017-08-20T09:22:58.088Z,29.90
2017-08-20T09:25:24.455Z,30.90
2017-08-20T09:27:50.847Z,31.30
2017-08-20T09:30:17.243Z,31.80
2017-08-20T09:32:43.623Z,31.10
2017-08-20T09:35:10.042Z,29.80
2017-08-20T09:37:36.468Z,28.10
2017-08-20T09:40:02.895Z,26.80
2017-08-20T09:42:29.283Z,25.90
2017-08-20T09:44:55.715Z,24.50
2017-08-20T09:47:22.111Z,23.40
2017-08-20T09:49:48.509Z,22.80
2017-08-20T09:52:14.919Z,22.70
2017-08-20T09:54:41.367Z,22.20
2017-08-20T09:57:07.789Z,21.80
2017-08-20T09:59:34.959Z,21.20
2017-08-20T10:02:01.400Z,21.20
2017-08-20T10:04:27.803Z,20.90
2017-08-20T10:06:54.184Z,20.90
2017-08-20T10:09:20.591Z,21.20
2017-08-20T10:11:47.016Z,21.30
2017-08-20T10:14:13.408Z,21.20
2017-08-20T10:16:39.822Z,21.10
2017-08-20T10:19:06.208Z,21.00
2017-08-20T10:21:33.691Z,20.80
2017-08-20T10:24:00.067Z,20.60
2017-08-20T10:26:26.470Z,20.50
2017-08-20T10:28:52.866Z,20.60
2017-08-20T10:31:19.291Z,20.80
2017-08-20T10:33:46.827Z,20.80
2017-08-20T10:36:13.171Z,20.70
2017-08-20T10:38:39.595Z,20.70
2017-08-20T10:41:05.988Z,20.70
2017-08-20T10:43:32.385Z,20.90
2017-08-20T10:45:58.799Z,20.90
2017-08-20T10:48:25.230Z,20.90
2017-08-20T10:50:51.594Z,20.90
2017-08-20T10:53:18.049Z,20.80
2017-08-20T10:55:44.454Z,20.80
2017-08-20T10:58:10.829Z,20.80
2017-08-20T11:00:37.223Z,20.90
2017-08-20T11:03:03.611Z,21.00
2017-08-20T11:05:30.763Z,21.10
2017-08-20T11:07:57.127Z,21.10
2017-08-20T11:10:23.512Z,21.10
2017-08-20T11:12:49.959Z,21.20
2017-08-20T11:15:16.338Z,21.20
2017-08-20T11:17:42.700Z,21.10
2017-08-20T11:20:09.070Z,21.00
2017-08-20T11:22:35.404Z,20.90
2017-08-20T11:25:01.836Z,20.90
2017-08-20T11:27:29.077Z,20.90
2017-08-20T11:29:55.459Z,20.90
2017-08-20T11:32:21.913Z,21.00
2017-08-20T11:34:48.240Z,21.00
2017-08-20T11:37:15.382Z,21.10
2017-08-20T11:39:41.759Z,21.00
2017-08-20T11:42:08.127Z,21.10
2017-08-20T11:44:34.475Z,21.20
2017-08-20T11:47:00.886Z,21.30
2017-08-20T11:49:27.579Z,21.40
2017-08-20T11:51:54.032Z,21.30
2017-08-20T11:54:20.408Z,21.40
2017-08-20T11:56:46.811Z,21.50
2017-08-20T11:59:13.231Z,21.50
2017-08-20T12:01:39.622Z,21.50
2017-08-20T12:04:06.015Z,21.30
2017-08-20T12:06:32.424Z,21.40
2017-08-20T12:08:58.879Z,21.50
2017-08-20T12:11:25.248Z,21.60
2017-08-20T12:13:51.643Z,21.60
2017-08-20T12:16:18.059Z,21.60
2017-08-20T12:18:44.406Z,21.70
2017-08-20T12:21:10.790Z,21.80
2017-08-20T12:23:37.181Z,21.80
2017-08-20T12:26:03.639Z,21.70
2017-08-20T12:28:30.064Z,21.80
2017-08-20T12:30:56.407Z,21.80
2017-08-20T12:33:22.790Z,22.20
2017-08-20T12:35:49.163Z,22.60
2017-08-20T12:38:15.583Z,23.30
2017-08-20T12:40:41.919Z,24.60
2017-08-20T12:43:08.303Z,26.10
2017-08-20T12:45:34.790Z,27.50
2017-08-20T12:48:01.167Z,28.50
2017-08-20T12:50:28.598Z,29.00
2017-08-20T12:52:55.015Z,29.20
2017-08-20T12:55:22.114Z,28.80
2017-08-20T12:57:48.529Z,28.80
2017-08-20T13:00:14.891Z,29.40
2017-08-20T13:02:42.279Z,30.30
2017-08-20T13:05:08.671Z,31.60
2017-08-20T13:07:35.024Z,33.00
2017-08-20T13:10:01.513Z,33.70
2017-08-20T13:12:27.879Z,33.50
2017-08-20T13:14:54.295Z,31.90
2017-08-20T13:17:20.667Z,30.30
2017-08-20T13:19:49.283Z,28.70
2017-08-20T13:22:15.748Z,27.30
2017-08-20T13:24:42.124Z,26.30
2017-08-20T13:27:08.487Z,25.00
2017-08-20T13:29:34.868Z,24.30
2017-08-20T13:32:01.210Z,23.80
2017-08-20T13:34:27.636Z,23.20
2017-08-20T13:36:54.064Z,22.80
2017-08-20T13:39:20.435Z,22.50
2017-08-20T13:41:47.652Z,22.30
2017-08-20T13:44:14.099Z,22.20
2017-08-20T13:46:40.433Z,22.40
2017-08-20T13:49:06.787Z,22.90
2017-08-20T13:51:33.909Z,26.20
2017-08-20T13:54:00.272Z,26.20
2017-08-20T13:56:26.674Z,28.80
2017-08-20T13:58:53.043Z,31.20
2017-08-20T14:01:19.416Z,33.10
2017-08-20T14:03:46.543Z,36.00
2017-08-20T14:06:12.984Z,35.90
2017-08-20T14:08:39.339Z,36.80
2017-08-20T14:11:05.721Z,37.30
2017-08-20T14:13:32.110Z,38.30
2017-08-20T14:15:59.243Z,35.70
2017-08-20T14:18:26.336Z,33.50
2017-08-20T14:20:52.742Z,33.30
2017-08-20T14:23:19.138Z,31.40
2017-08-20T14:25:45.503Z,29.70
2017-08-20T14:28:13.754Z,26.40
2017-08-20T14:30:40.146Z,26.30
2017-08-20T14:33:06.553Z,25.50
2017-08-20T14:35:32.923Z,24.90
2017-08-20T14:38:00.047Z,23.70
2017-08-20T14:40:26.409Z,23.70
2017-08-20T14:42:52.878Z,23.20
2017-08-20T14:45:19.232Z,22.70
2017-08-20T14:47:45.635Z,22.60
2017-08-20T14:50:12.040Z,22.30
2017-08-20T14:52:39.171Z,21.90
2017-08-20T14:55:06.311Z,21.80
2017-08-20T14:57:33.403Z,21.60
2017-08-20T14:59:59.871Z,21.60
2017-08-20T15:02:26.990Z,21.50
2017-08-20T15:04:54.119Z,21.30
2017-08-20T15:07:20.491Z,21.30
2017-08-20T15:09:46.858Z,21.20
2017-08-20T15:12:13.283Z,21.00
2017-08-20T15:14:40.432Z,20.80
2017-08-20T15:17:06.792Z,20.70
2017-08-20T15:19:34.031Z,20.70
2017-08-20T15:22:00.415Z,20.70
2017-08-20T15:24:26.830Z,20.70
2017-08-20T15:26:53.241Z,20.60
2017-08-20T15:29:19.623Z,20.50
2017-08-20T15:31:46.016Z,20.50
2017-08-20T15:34:12.400Z,20.30
2017-08-20T15:36:38.771Z,20.30
2017-08-20T15:39:05.197Z,20.20
2017-08-20T15:41:31.623Z,20.10
2017-08-20T15:43:58.476Z,20.10
2017-08-20T15:46:24.936Z,20.10
2017-08-20T15:48:51.414Z,20.10
2017-08-20T15:51:17.764Z,20.10
2017-08-20T15:53:44.119Z,19.90
2017-08-20T15:56:10.545Z,19.90
2017-08-20T15:58:36.944Z,19.90
2017-08-20T16:01:03.419Z,19.80
2017-08-20T16:03:29.828Z,19.70
2017-08-20T16:05:56.236Z,19.70
2017-08-20T16:08:22.606Z,19.60
2017-08-20T16:10:48.992Z,19.50
2017-08-20T16:13:15.372Z,19.50
2017-08-20T16:15:41.816Z,19.50
2017-08-20T16:18:08.221Z,19.40
2017-08-20T16:20:36.504Z,19.40
2017-08-20T16:23:02.901Z,19.40
2017-08-20T16:25:29.276Z,19.30
2017-08-20T16:27:56.404Z,19.40
2017-08-20T16:30:22.832Z,19.30
2017-08-20T16:32:49.235Z,19.40
2017-08-20T16:35:16.324Z,19.30
2017-08-20T16:37:42.719Z,19.30
2017-08-20T16:40:09.121Z,19.40
2017-08-20T16:42:35.727Z,19.40
2017-08-20T16:45:02.285Z,19.40
2017-08-20T16:47:28.879Z,19.50
2017-08-20T16:49:55.496Z,19.60
2017-08-20T16:52:22.096Z,19.70
2017-08-20T16:54:48.537Z,19.80
2017-08-20T16:57:14.935Z,19.70
2017-08-20T16:59:41.560Z,19.80
2017-08-20T17:02:08.155Z,19.70
2017-08-20T17:04:34.560Z,19.60
2017-08-20T17:07:01.091Z,19.60
2017-08-20T17:09:28.283Z,19.50
2017-08-20T17:11:55.185Z,19.50
2017-08-20T17:14:21.775Z,19.50
2017-08-20T17:16:48.203Z,19.50
2017-08-20T17:19:15.412Z,19.40
2017-08-20T17:21:43.517Z,19.30
2017-08-20T17:24:10.154Z,19.30
2017-08-20T17:26:37.001Z,19.20
2017-08-20T17:29:03.918Z,19.20
2017-08-20T17:31:31.027Z,19.20
2017-08-20T17:33:58.149Z,19.10
2017-08-20T17:36:25.820Z,19.10
2017-08-20T17:38:52.949Z,19.10
2017-08-20T17:41:20.990Z,19.00
2017-08-20T17:43:49.064Z,19.00
2017-08-20T17:46:17.351Z,19.00
2017-08-20T17:48:44.954Z,19.00
2017-08-20T17:51:13.040Z,18.90
2017-08-20T17:53:40.893Z,18.80
2017-08-20T17:56:08.846Z,18.80
2017-08-20T17:58:36.858Z,18.70
2017-08-20T18:01:04.822Z,18.70
2017-08-20T18:03:32.641Z,18.60
2017-08-20T18:06:00.677Z,18.50
2017-08-20T18:08:29.318Z,18.40
2017-08-20T18:10:57.354Z,18.40
2017-08-20T18:13:25.307Z,18.30
2017-08-20T18:15:53.250Z,18.20
2017-08-20T18:18:21.115Z,18.20
2017-08-20T18:20:49.090Z,18.10
2017-08-20T18:23:17.076Z,18.00
2017-08-20T18:25:45.007Z,17.90
2017-08-20T18:28:12.965Z,17.80
2017-08-20T18:30:41.999Z,17.80
2017-08-20T18:33:09.900Z,17.60
2017-08-20T18:35:38.035Z,17.60
2017-08-20T18:38:05.966Z,17.40
2017-08-20T18:40:33.926Z,17.40
2017-08-20T18:43:01.884Z,17.30
2017-08-20T18:45:29.904Z,17.20
2017-08-20T18:47:57.930Z,17.10
2017-08-20T18:50:26.129Z,17.00
2017-08-20T18:52:54.957Z,17.00
2017-08-20T18:55:22.884Z,16.80
2017-08-20T18:57:52.491Z,16.70
2017-08-20T19:00:21.379Z,16.60
2017-08-20T19:02:49.424Z,16.60
2017-08-20T19:05:18.273Z,16.50
2017-08-20T19:07:46.129Z,16.50
2017-08-20T19:10:14.241Z,16.50
2017-08-20T19:12:42.152Z,16.40
2017-08-20T19:15:10.160Z,16.40
2017-08-20T19:17:38.189Z,16.30
2017-08-20T19:20:06.836Z,16.30
2017-08-20T19:22:35.590Z,16.20
2017-08-20T19:25:04.471Z,16.10
2017-08-20T19:27:33.103Z,16.10
2017-08-20T19:30:01.062Z,16.00
2017-08-20T19:32:29.153Z,16.00
2017-08-20T19:34:57.873Z,15.80
2017-08-20T19:37:26.731Z,15.80
2017-08-20T19:39:54.780Z,15.70
2017-08-20T19:42:22.787Z,15.70
2017-08-20T19:44:52.211Z,15.60
2017-08-20T19:47:21.099Z,15.60
2017-08-20T19:49:49.129Z,15.60
2017-08-20T19:52:17.046Z,15.50
2017-08-20T19:54:45.012Z,15.50
2017-08-20T19:57:13.252Z,15.40
2017-08-20T19:59:41.136Z,15.40
2017-08-20T20:02:09.141Z,15.40
2017-08-20T20:04:37.062Z,15.30
2017-08-20T20:07:04.972Z,15.30
2017-08-20T20:09:33.045Z,15.20
2017-08-20T20:12:00.921Z,15.20
2017-08-20T20:14:29.059Z,15.10
2017-08-20T20:16:57.132Z,15.10
2017-08-20T20:19:25.137Z,15.10
2017-08-20T20:21:53.210Z,15.10
2017-08-20T20:24:22.159Z,15.10
2017-08-20T20:26:50.138Z,15.00
2017-08-20T20:29:17.970Z,15.00
2017-08-20T20:31:45.990Z,14.90
2017-08-20T20:34:13.852Z,14.80
2017-08-20T20:36:41.878Z,14.80
2017-08-20T20:39:09.813Z,14.70
2017-08-20T20:41:38.885Z,14.70
2017-08-20T20:44:06.747Z,14.60
2017-08-20T20:46:34.802Z,14.60
2017-08-20T20:49:03.462Z,14.50
2017-08-20T20:51:31.958Z,14.50
2017-08-20T20:54:00.756Z,14.50
2017-08-20T20:56:28.594Z,14.50
2017-08-20T20:58:56.395Z,14.40
2017-08-20T21:01:24.243Z,14.40
2017-08-20T21:03:51.327Z,14.40
2017-08-20T21:06:18.001Z,14.30
2017-08-20T21:08:44.577Z,14.20
2017-08-20T21:11:11.127Z,14.20
2017-08-20T21:13:37.621Z,14.10
2017-08-20T21:16:05.059Z,14.10
2017-08-20T21:18:31.439Z,14.10
2017-08-20T21:20:57.831Z,14.00
2017-08-20T21:23:24.259Z,14.00
2017-08-20T21:25:50.651Z,13.90
2017-08-20T21:28:17.043Z,13.90
2017-08-20T21:30:43.447Z,13.80
2017-08-20T21:33:09.836Z,13.80
2017-08-20T21:35:36.209Z,13.70
2017-08-20T21:38:02.638Z,13.70
2017-08-20T21:40:29.041Z,13.60
2017-08-20T21:42:55.384Z,13.50
2017-08-20T21:45:22.526Z,13.50
2017-08-20T21:47:49.648Z,13.50
2017-08-20T21:50:16.776Z,13.40
2017-08-20T21:52:43.916Z,13.40
2017-08-20T21:55:10.325Z,13.40
2017-08-20T21:57:36.704Z,13.40
2017-08-20T22:00:03.133Z,13.40
2017-08-20T22:02:29.636Z,13.40
2017-08-20T22:04:56.020Z,13.40
2017-08-20T22:07:22.427Z,13.40
2017-08-20T22:09:49.103Z,13.40
2017-08-20T22:12:15.457Z,13.40
2017-08-20T22:14:42.611Z,13.40
2017-08-20T22:17:09.000Z,13.30
2017-08-20T22:19:35.415Z,13.40
2017-08-20T22:22:02.640Z,13.30
2017-08-20T22:24:29.064Z,13.30
2017-08-20T22:26:55.519Z,13.40
2017-08-20T22:29:21.891Z,13.30
2017-08-20T22:31:48.267Z,13.30
2017-08-20T22:34:14.635Z,13.40
2017-08-20T22:36:41.795Z,13.40
2017-08-20T22:39:08.208Z,13.30
2017-08-20T22:41:35.339Z,13.40
2017-08-20T22:44:01.735Z,13.40
2017-08-20T22:46:28.186Z,13.40
2017-08-20T22:48:54.574Z,13.30
2017-08-20T22:51:20.991Z,13.40
2017-08-20T22:53:47.399Z,13.40
2017-08-20T22:56:13.743Z,13.40
2017-08-20T22:58:40.195Z,13.40
2017-08-20T23:01:06.566Z,13.50
2017-08-20T23:03:33.055Z,13.50
2017-08-20T23:05:59.488Z,13.50
2017-08-20T23:08:26.915Z,13.50
2017-08-20T23:10:53.314Z,13.60
2017-08-20T23:13:19.771Z,13.60
2017-08-20T23:15:46.183Z,13.60
2017-08-20T23:18:12.588Z,13.60
2017-08-20T23:20:39.027Z,13.60
2017-08-20T23:23:05.444Z,13.60
2017-08-20T23:25:32.533Z,13.60
2017-08-20T23:27:58.895Z,13.50
2017-08-20T23:30:25.327Z,13.60
2017-08-20T23:32:51.748Z,13.60
2017-08-20T23:35:18.157Z,13.60
2017-08-20T23:37:44.619Z,13.50
2017-08-20T23:40:11.007Z,13.60
2017-08-20T23:42:37.402Z,13.60
2017-08-20T23:45:03.824Z,13.60
2017-08-20T23:47:30.175Z,13.60
2017-08-20T23:49:56.586Z,13.60
2017-08-20T23:52:22.966Z,13.60
2017-08-20T23:54:49.347Z,13.60
2017-08-20T23:57:15.751Z,13.70
2017-08-20T23:59:42.156Z,13.70
